createdAt,value
2017-09-18T00:00:45.666Z,43.4
2017-09-18T00:01:46.399Z,41.5
2017-09-18T00:02:47.170Z,43.3
2017-09-18T00:03:47.961Z,43.1
2017-09-18T00:04:48.988Z,40.9
2017-09-18T00:05:49.714Z,40.0
2017-09-18T00:06:50.436Z,41.4
2017-09-18T00:07:51.222Z,48.2
2017-09-18T00:08:51.932Z,47.9
2017-09-18T00:09:53.013Z,42.1
2017-09-18T00:10:53.782Z,42.6
2017-09-18T00:11:54.501Z,42.0
2017-09-18T00:12:55.290Z,44.7
2017-09-18T00:13:56.025Z,43.1
2017-09-18T00:14:57.007Z,44.2
2017-09-18T00:15:57.730Z,44.4
2017-09-18T00:16:58.523Z,40.5
2017-09-18T00:17:59.246Z,41.5
2017-09-18T00:18:59.971Z,45.7
2017-09-18T00:20:00.708Z,45.3
2017-09-18T00:21:01.492Z,41.1
2017-09-18T00:22:02.534Z,44.5
2017-09-18T00:23:03.271Z,41.9
2017-09-18T00:24:04.032Z,44.0
2017-09-18T00:25:04.824Z,45.1
2017-09-18T00:26:05.557Z,44.9
2017-09-18T00:27:06.739Z,45.3
2017-09-18T00:28:07.503Z,41.9
2017-09-18T00:29:08.282Z,42.8
2017-09-18T00:30:09.054Z,40.6
2017-09-18T00:31:09.773Z,44.6
2017-09-18T00:32:10.927Z,44.2
2017-09-18T00:33:11.714Z,44.2
2017-09-18T00:34:12.486Z,38.9
2017-09-18T00:35:13.195Z,44.3
2017-09-18T00:36:13.989Z,41.6
2017-09-18T00:37:15.156Z,40.7
2017-09-18T00:38:15.883Z,41.5
2017-09-18T00:39:16.664Z,42.5
2017-09-18T00:40:17.438Z,42.2
2017-09-18T00:41:18.175Z,42.4
2017-09-18T00:42:18.905Z,42.2
2017-09-18T00:43:19.690Z,41.7
2017-09-18T00:44:20.412Z,43.7
2017-09-18T00:45:21.144Z,43.7
2017-09-18T00:46:22.173Z,42.3
2017-09-18T00:47:22.907Z,40.0
2017-09-18T00:48:23.686Z,41.0
2017-09-18T00:49:24.421Z,40.9
2017-09-18T00:50:25.225Z,43.2
2017-09-18T00:51:26.207Z,38.4
2017-09-18T00:52:26.935Z,42.0
2017-09-18T00:53:27.658Z,41.7
2017-09-18T00:54:28.371Z,40.8
2017-09-18T00:55:29.136Z,45.7
2017-09-18T00:56:30.165Z,38.8
2017-09-18T00:57:30.944Z,41.3
2017-09-18T00:58:31.658Z,41.8
2017-09-18T00:59:32.377Z,39.0
2017-09-18T01:00:33.191Z,44.9
2017-09-18T01:01:34.289Z,39.4
2017-09-18T01:02:35.085Z,41.4
2017-09-18T01:03:35.814Z,40.4
2017-09-18T01:04:36.536Z,39.7
2017-09-18T01:05:37.340Z,41.4
2017-09-18T01:06:38.363Z,39.4
2017-09-18T01:07:39.165Z,36.4
2017-09-18T01:08:39.944Z,33.0
2017-09-18T01:09:40.675Z,42.0
2017-09-18T01:10:41.466Z,43.7
2017-09-18T01:11:42.589Z,43.2
2017-09-18T01:12:43.377Z,40.2
2017-09-18T01:13:44.180Z,34.4
2017-09-18T01:14:44.970Z,37.5
2017-09-18T01:15:45.692Z,38.6
2017-09-18T01:16:46.845Z,43.0
2017-09-18T01:17:47.574Z,42.6
2017-09-18T01:18:48.302Z,42.3
2017-09-18T01:19:49.068Z,42.0
2017-09-18T01:20:49.870Z,38.9
2017-09-18T01:21:50.950Z,40.0
2017-09-18T01:22:51.661Z,44.7
2017-09-18T01:23:52.450Z,43.8
2017-09-18T01:24:53.180Z,39.1
2017-09-18T01:25:53.945Z,42.6
2017-09-18T01:26:55.013Z,44.8
2017-09-18T01:27:55.739Z,41.6
2017-09-18T01:28:56.521Z,42.5
2017-09-18T01:29:57.244Z,42.0
2017-09-18T01:30:57.976Z,40.4
2017-09-18T01:31:59.163Z,44.7
2017-09-18T01:32:59.886Z,46.9
2017-09-18T01:34:00.684Z,47.3
2017-09-18T01:35:01.411Z,46.6
2017-09-18T01:36:02.143Z,41.7
2017-09-18T01:37:02.922Z,41.8
2017-09-18T01:38:03.657Z,43.3
2017-09-18T01:39:04.704Z,41.7
2017-09-18T01:40:05.448Z,43.4
2017-09-18T01:41:06.171Z,45.8
2017-09-18T01:42:06.913Z,46.7
2017-09-18T01:43:07.626Z,44.7
2017-09-18T01:44:08.674Z,45.3
2017-09-18T01:45:09.406Z,47.7
2017-09-18T01:46:10.211Z,46.6
2017-09-18T01:47:10.920Z,39.6
2017-09-18T01:48:11.646Z,43.2
2017-09-18T01:49:12.785Z,43.3
2017-09-18T01:50:13.510Z,40.1
2017-09-18T01:51:14.262Z,42.1
2017-09-18T01:52:15.055Z,44.5
2017-09-18T01:53:15.794Z,46.6
2017-09-18T01:54:16.660Z,48.0
2017-09-18T01:55:17.400Z,46.2
2017-09-18T01:56:18.122Z,45.8
2017-09-18T01:57:18.854Z,47.6
2017-09-18T01:58:19.578Z,46.4
2017-09-18T01:59:20.736Z,48.0
2017-09-18T02:00:21.522Z,47.8
2017-09-18T02:01:22.289Z,44.6
2017-09-18T02:02:23.017Z,47.9
2017-09-18T02:03:23.781Z,49.7
2017-09-18T02:04:24.875Z,43.7
2017-09-18T02:05:25.607Z,46.7
2017-09-18T02:06:26.384Z,47.7
2017-09-18T02:07:27.110Z,45.8
2017-09-18T02:08:27.851Z,47.5
2017-09-18T02:09:28.831Z,47.4
2017-09-18T02:10:29.623Z,53.5
2017-09-18T02:11:30.395Z,53.0
2017-09-18T02:12:31.129Z,52.6
2017-09-18T02:13:31.891Z,50.3
2017-09-18T02:14:33.035Z,49.5
2017-09-18T02:15:33.773Z,47.7
2017-09-18T02:16:34.552Z,47.8
2017-09-18T02:17:35.326Z,47.3
2017-09-18T02:18:36.111Z,48.1
2017-09-18T02:19:36.911Z,47.9
2017-09-18T02:20:37.634Z,50.6
2017-09-18T02:21:38.753Z,50.6
2017-09-18T02:22:39.496Z,48.3
2017-09-18T02:23:40.229Z,51.7
2017-09-18T02:24:40.959Z,46.1
2017-09-18T02:25:41.687Z,49.2
2017-09-18T02:26:42.710Z,51.5
2017-09-18T02:27:43.431Z,52.1
2017-09-18T02:28:44.167Z,51.3
2017-09-18T02:29:44.913Z,47.8
2017-09-18T02:30:45.708Z,51.3
2017-09-18T02:31:46.781Z,52.8
2017-09-18T02:32:47.509Z,54.2
2017-09-18T02:33:48.242Z,51.5
2017-09-18T02:34:48.979Z,47.8
2017-09-18T02:35:49.764Z,48.4
2017-09-18T02:36:50.860Z,49.7
2017-09-18T02:37:51.662Z,49.7
2017-09-18T02:38:52.388Z,54.0
2017-09-18T02:39:53.181Z,51.7
2017-09-18T02:40:53.906Z,53.0
2017-09-18T02:41:55.019Z,52.9
2017-09-18T02:42:55.745Z,51.5
2017-09-18T02:43:56.476Z,56.0
2017-09-18T02:44:57.195Z,56.6
2017-09-18T02:45:58.026Z,56.6
2017-09-18T02:46:59.012Z,52.3
2017-09-18T02:47:59.807Z,52.8
2017-09-18T02:49:00.580Z,54.1
2017-09-18T02:50:01.305Z,51.5
2017-09-18T02:51:02.042Z,52.1
2017-09-18T02:52:02.824Z,53.1
2017-09-18T02:53:03.919Z,50.7
2017-09-18T02:54:04.716Z,50.4
2017-09-18T02:55:05.484Z,52.5
2017-09-18T02:56:06.211Z,50.5
2017-09-18T02:57:06.932Z,50.8
2017-09-18T02:58:08.052Z,49.8
2017-09-18T02:59:08.784Z,50.7
2017-09-18T03:00:09.587Z,53.4
2017-09-18T03:01:10.389Z,52.5
2017-09-18T03:02:11.196Z,56.4
2017-09-18T03:03:11.923Z,56.8
2017-09-18T03:04:12.652Z,56.9
2017-09-18T03:05:13.783Z,56.1
2017-09-18T03:06:14.552Z,53.7
2017-09-18T03:07:15.286Z,52.5
2017-09-18T03:08:16.012Z,54.4
2017-09-18T03:09:16.813Z,59.1
2017-09-18T03:10:17.843Z,54.2
2017-09-18T03:11:18.569Z,58.6
2017-09-18T03:12:19.351Z,64.1
2017-09-18T03:13:20.093Z,61.9
2017-09-18T03:14:20.854Z,62.6
2017-09-18T03:15:22.385Z,61.0
2017-09-18T03:16:23.210Z,57.0
2017-09-18T03:17:24.015Z,55.9
2017-09-18T03:18:24.813Z,60.8
2017-09-18T03:19:25.543Z,62.7
2017-09-18T03:20:28.110Z,61.0
2017-09-18T03:21:29.472Z,57.5
2017-09-18T03:22:30.141Z,56.8
2017-09-18T03:23:30.863Z,55.5
2017-09-18T03:24:31.608Z,58.0
2017-09-18T03:25:32.718Z,58.1
2017-09-18T03:26:33.503Z,56.3
2017-09-18T03:27:34.250Z,54.3
2017-09-18T03:28:35.053Z,57.1
2017-09-18T03:29:35.786Z,51.9
2017-09-18T03:30:36.888Z,56.7
2017-09-18T03:31:37.667Z,55.5
2017-09-18T03:32:38.458Z,54.1
2017-09-18T03:33:39.186Z,51.0
2017-09-18T03:34:40.001Z,50.1
2017-09-18T03:35:41.125Z,53.5
2017-09-18T03:36:41.856Z,52.4
2017-09-18T03:37:42.588Z,55.5
2017-09-18T03:38:43.344Z,51.3
2017-09-18T03:39:44.064Z,48.6
2017-09-18T03:40:45.134Z,53.4
2017-09-18T03:41:45.870Z,52.6
2017-09-18T03:42:46.637Z,52.7
2017-09-18T03:43:47.355Z,50.3
2017-09-18T03:44:48.092Z,50.4
2017-09-18T03:45:48.903Z,53.8
2017-09-18T03:46:49.653Z,52.6
2017-09-18T03:47:50.390Z,51.8
2017-09-18T03:48:51.121Z,54.8
2017-09-18T03:49:51.915Z,61.2
2017-09-18T03:50:52.839Z,58.5
2017-09-18T03:51:53.612Z,60.0
2017-09-18T03:52:54.439Z,56.9
2017-09-18T03:53:55.165Z,53.5
2017-09-18T03:54:55.946Z,56.0
2017-09-18T03:55:56.746Z,51.8
2017-09-18T03:56:57.875Z,55.0
2017-09-18T03:57:58.602Z,49.4
2017-09-18T03:58:59.413Z,53.5
2017-09-18T04:00:00.216Z,55.9
2017-09-18T04:01:00.945Z,53.7
2017-09-18T04:02:02.034Z,58.0
2017-09-18T04:03:02.756Z,58.4
2017-09-18T04:04:03.563Z,56.5
2017-09-18T04:05:04.356Z,58.4
2017-09-18T04:06:05.207Z,57.0
2017-09-18T04:07:06.014Z,55.1
2017-09-18T04:08:06.740Z,56.2
2017-09-18T04:09:07.884Z,61.8
2017-09-18T04:10:08.697Z,60.7
2017-09-18T04:11:09.487Z,59.5
2017-09-18T04:12:10.284Z,55.7
2017-09-18T04:13:11.024Z,54.4
2017-09-18T04:14:11.755Z,55.4
2017-09-18T04:15:12.836Z,57.0
2017-09-18T04:16:13.584Z,58.8
2017-09-18T04:17:14.307Z,60.5
2017-09-18T04:18:15.045Z,62.7
2017-09-18T04:19:15.778Z,59.1
2017-09-18T04:20:16.846Z,57.0
2017-09-18T04:21:17.646Z,62.6
2017-09-18T04:22:18.459Z,66.1
2017-09-18T04:23:19.238Z,62.3
2017-09-18T04:24:19.969Z,55.6
2017-09-18T04:25:21.120Z,58.8
2017-09-18T04:26:21.925Z,61.0
2017-09-18T04:27:22.649Z,60.0
2017-09-18T04:28:23.387Z,61.1
2017-09-18T04:29:24.117Z,58.7
2017-09-18T04:30:25.227Z,59.5
2017-09-18T04:31:25.951Z,55.3
2017-09-18T04:32:26.705Z,60.0
2017-09-18T04:33:27.423Z,60.0
2017-09-18T04:34:28.155Z,59.9
2017-09-18T04:35:29.180Z,61.0
2017-09-18T04:36:29.917Z,63.7
2017-09-18T04:37:30.716Z,61.9
2017-09-18T04:38:31.443Z,62.2
2017-09-18T04:39:32.174Z,58.9
2017-09-18T04:40:33.149Z,69.1
2017-09-18T04:41:33.890Z,61.6
2017-09-18T04:42:34.617Z,57.3
2017-09-18T04:43:35.356Z,58.6
2017-09-18T04:44:36.178Z,65.2
2017-09-18T04:45:37.144Z,62.5
2017-09-18T04:46:37.874Z,57.3
2017-09-18T04:47:38.604Z,60.7
2017-09-18T04:48:39.336Z,60.7
2017-09-18T04:49:40.145Z,60.5
2017-09-18T04:50:41.057Z,58.2
2017-09-18T04:51:41.866Z,61.6
2017-09-18T04:52:42.596Z,65.5
2017-09-18T04:53:43.326Z,55.2
2017-09-18T04:54:44.115Z,57.4
2017-09-18T04:55:45.103Z,56.9
2017-09-18T04:56:45.910Z,63.3
2017-09-18T04:57:46.647Z,60.0
2017-09-18T04:58:47.375Z,60.9
2017-09-18T04:59:48.114Z,56.6
2017-09-18T05:00:48.855Z,59.5
2017-09-18T05:01:49.959Z,60.5
2017-09-18T05:02:50.735Z,59.4
2017-09-18T05:03:51.467Z,56.8
2017-09-18T05:04:52.204Z,56.9
2017-09-18T05:05:52.934Z,61.0
2017-09-18T05:06:54.065Z,64.0
2017-09-18T05:07:54.832Z,63.4
2017-09-18T05:08:55.629Z,64.8
2017-09-18T05:09:56.424Z,64.8
2017-09-18T05:10:57.146Z,65.8
2017-09-18T05:11:57.884Z,61.7
2017-09-18T05:12:58.960Z,57.6
2017-09-18T05:13:59.744Z,59.7
2017-09-18T05:15:00.471Z,61.1
2017-09-18T05:16:01.276Z,58.4
2017-09-18T05:17:02.119Z,62.1
2017-09-18T05:18:03.145Z,56.4
2017-09-18T05:19:03.877Z,59.3
2017-09-18T05:20:04.678Z,57.0
2017-09-18T05:21:05.475Z,55.0
2017-09-18T05:22:06.216Z,56.4
2017-09-18T05:23:07.193Z,58.7
2017-09-18T05:24:07.934Z,61.3
2017-09-18T05:25:08.681Z,55.3
2017-09-18T05:26:09.488Z,58.6
2017-09-18T05:27:11.211Z,58.7
2017-09-18T05:29:15.645Z,57.4
2017-09-18T05:30:16.347Z,55.5
2017-09-18T05:31:17.127Z,55.4
2017-09-18T05:32:17.927Z,57.2
2017-09-18T05:33:18.736Z,59.6
2017-09-18T05:34:19.554Z,60.3
2017-09-18T05:35:20.284Z,61.1
2017-09-18T05:36:21.014Z,60.0
2017-09-18T05:37:21.991Z,58.9
2017-09-18T05:38:22.733Z,62.0
2017-09-18T05:39:23.500Z,63.8
2017-09-18T05:40:24.292Z,62.5
2017-09-18T05:41:25.029Z,66.4
2017-09-18T05:42:26.075Z,65.7
2017-09-18T05:43:26.886Z,65.6
2017-09-18T05:44:27.618Z,66.4
2017-09-18T05:45:28.398Z,63.8
2017-09-18T05:46:29.176Z,66.1
2017-09-18T05:47:30.308Z,64.1
2017-09-18T05:48:31.043Z,66.9
2017-09-18T05:49:31.775Z,60.3
2017-09-18T05:50:32.585Z,64.8
2017-09-18T05:51:33.326Z,55.0
2017-09-18T05:52:34.526Z,63.1
2017-09-18T05:53:35.264Z,64.4
2017-09-18T05:54:35.992Z,62.1
2017-09-18T05:55:36.757Z,62.7
2017-09-18T05:56:37.564Z,64.9
2017-09-18T05:57:38.537Z,63.3
2017-09-18T05:58:39.265Z,63.7
2017-09-18T05:59:39.996Z,64.6
2017-09-18T06:00:40.795Z,57.1
2017-09-18T06:01:41.610Z,58.0
2017-09-18T06:02:42.344Z,61.6
2017-09-18T06:03:43.074Z,60.5
2017-09-18T06:04:43.806Z,58.2
2017-09-18T06:05:44.805Z,64.7
2017-09-18T06:06:45.538Z,66.8
2017-09-18T06:07:46.345Z,63.5
2017-09-18T06:08:47.092Z,61.8
2017-09-18T06:09:47.840Z,61.1
2017-09-18T06:10:48.819Z,65.0
2017-09-18T06:11:49.643Z,64.5
2017-09-18T06:12:50.424Z,64.6
2017-09-18T06:13:51.154Z,65.2
2017-09-18T06:14:51.911Z,62.1
2017-09-18T06:15:53.064Z,68.7
2017-09-18T06:16:53.818Z,67.6
2017-09-18T06:17:54.598Z,69.1
2017-09-18T06:18:55.335Z,69.8
2017-09-18T06:19:56.134Z,68.0
2017-09-18T06:20:57.165Z,61.0
2017-09-18T06:21:57.897Z,63.7
2017-09-18T06:22:58.626Z,59.5
2017-09-18T06:23:59.456Z,63.5
2017-09-18T06:25:00.255Z,67.0
2017-09-18T06:26:01.334Z,58.0
2017-09-18T06:27:02.067Z,57.5
2017-09-18T06:28:02.795Z,59.7
2017-09-18T06:29:03.527Z,63.0
2017-09-18T06:30:04.259Z,68.6
2017-09-18T06:31:05.371Z,67.2
2017-09-18T06:32:06.193Z,71.5
2017-09-18T06:33:06.883Z,60.4
2017-09-18T06:34:07.659Z,57.4
2017-09-18T06:35:08.469Z,60.3
2017-09-18T06:36:09.243Z,62.3
2017-09-18T06:37:10.395Z,62.2
2017-09-18T06:38:11.165Z,60.0
2017-09-18T06:39:11.966Z,61.9
2017-09-18T06:40:12.768Z,57.3
2017-09-18T06:41:13.580Z,62.5
2017-09-18T06:42:14.725Z,62.5
2017-09-18T06:43:15.446Z,61.9
2017-09-18T06:44:16.272Z,53.5
2017-09-18T06:45:17.056Z,57.5
2017-09-18T06:46:17.862Z,60.3
2017-09-18T06:47:18.936Z,56.0
2017-09-18T06:48:19.673Z,64.2
2017-09-18T06:49:20.397Z,66.0
2017-09-18T06:50:21.215Z,63.4
2017-09-18T06:51:21.954Z,61.7
2017-09-18T06:52:22.998Z,66.2
2017-09-18T06:53:23.789Z,68.2
2017-09-18T06:54:24.583Z,64.6
2017-09-18T06:55:25.319Z,64.9
2017-09-18T06:56:26.055Z,66.5
2017-09-18T06:57:27.183Z,67.4
2017-09-18T06:58:27.991Z,71.9
2017-09-18T06:59:28.725Z,62.9
2017-09-18T07:00:29.461Z,66.3
2017-09-18T07:01:30.194Z,69.2
2017-09-18T07:02:31.276Z,73.1
2017-09-18T07:03:32.013Z,73.9
2017-09-18T07:04:32.794Z,79.6
2017-09-18T07:05:33.525Z,75.6
2017-09-18T07:06:34.350Z,75.8
2017-09-18T07:07:35.126Z,81.0
2017-09-18T07:08:35.949Z,80.1
2017-09-18T07:09:36.733Z,74.1
2017-09-18T07:10:37.543Z,75.2
2017-09-18T07:11:38.345Z,80.0
2017-09-18T07:12:39.363Z,85.5
2017-09-18T07:13:40.110Z,82.7
2017-09-18T07:14:40.906Z,82.8
2017-09-18T07:15:41.643Z,81.4
2017-09-18T07:16:42.373Z,83.2
2017-09-18T07:17:43.406Z,84.8
2017-09-18T07:18:44.240Z,87.1
2017-09-18T07:19:45.051Z,82.9
2017-09-18T07:20:45.787Z,83.0
2017-09-18T07:21:46.537Z,78.2
2017-09-18T07:22:47.635Z,80.5
2017-09-18T07:23:48.367Z,79.7
2017-09-18T07:24:49.100Z,81.3
2017-09-18T07:25:49.918Z,81.4
2017-09-18T07:26:50.704Z,85.4
2017-09-18T07:27:51.466Z,84.3
2017-09-18T07:28:52.255Z,83.0
2017-09-18T07:29:53.276Z,81.7
2017-09-18T07:30:54.011Z,79.0
2017-09-18T07:31:54.796Z,73.0
2017-09-18T07:32:55.540Z,77.4
2017-09-18T07:33:56.344Z,73.7
2017-09-18T07:34:57.336Z,70.8
2017-09-18T07:35:58.125Z,70.8
2017-09-18T07:36:58.864Z,76.3
2017-09-18T07:37:59.602Z,68.8
2017-09-18T07:39:00.437Z,69.5
2017-09-18T07:40:01.255Z,65.9
2017-09-18T07:41:02.015Z,66.4
2017-09-18T07:42:03.054Z,71.9
2017-09-18T07:43:03.857Z,70.8
2017-09-18T07:44:04.596Z,71.2
2017-09-18T07:45:05.335Z,73.3
2017-09-18T07:46:06.064Z,75.0
2017-09-18T07:47:07.158Z,75.2
2017-09-18T07:48:07.949Z,79.2
2017-09-18T07:49:08.696Z,80.7
2017-09-18T07:50:09.486Z,80.8
2017-09-18T07:51:10.306Z,86.0
2017-09-18T07:52:11.297Z,83.6
2017-09-18T07:53:12.096Z,82.9
2017-09-18T07:54:12.896Z,81.4
2017-09-18T07:55:13.706Z,76.8
2017-09-18T07:56:14.526Z,79.2
2017-09-18T07:57:15.659Z,82.5
2017-09-18T07:58:16.396Z,82.6
2017-09-18T07:59:17.125Z,85.9
2017-09-18T08:00:17.864Z,75.0
2017-09-18T08:01:18.605Z,77.3
2017-09-18T08:02:19.731Z,72.3
2017-09-18T08:03:20.481Z,70.8
2017-09-18T08:04:21.215Z,75.1
2017-09-18T08:05:21.954Z,77.2
2017-09-18T08:06:22.684Z,73.6
2017-09-18T08:07:23.764Z,75.1
2017-09-18T08:08:24.504Z,75.2
2017-09-18T08:09:25.269Z,75.9
2017-09-18T08:10:26.011Z,69.9
2017-09-18T08:11:26.814Z,69.3
2017-09-18T08:12:27.872Z,70.7
2017-09-18T08:13:28.676Z,79.6
2017-09-18T08:14:29.486Z,81.2
2017-09-18T08:15:30.218Z,78.0
2017-09-18T08:16:30.955Z,75.2
2017-09-18T08:17:31.984Z,70.5
2017-09-18T08:18:33.149Z,81.2
2017-09-18T08:19:33.848Z,78.7
2017-09-18T08:20:34.560Z,75.2
2017-09-18T08:21:35.374Z,79.6
2017-09-18T08:22:36.526Z,70.4
2017-09-18T08:23:37.264Z,65.3
2017-09-18T08:24:38.006Z,65.9
2017-09-18T08:25:38.915Z,65.1
2017-09-18T08:26:39.716Z,59.2
2017-09-18T08:27:42.256Z,62.4
2017-09-18T08:28:43.762Z,54.6
2017-09-18T08:29:44.574Z,51.6
2017-09-18T08:30:45.374Z,52.3
2017-09-18T08:31:46.111Z,49.9
2017-09-18T08:32:47.317Z,51.2
2017-09-18T08:33:48.056Z,49.9
2017-09-18T08:34:48.795Z,49.9
2017-09-18T08:35:49.540Z,46.1
2017-09-18T08:36:50.348Z,44.1
2017-09-18T08:37:51.472Z,39.5
2017-09-18T08:38:52.188Z,35.9
2017-09-18T08:39:53.009Z,34.6
2017-09-18T08:40:53.826Z,37.1
2017-09-18T08:41:54.626Z,29.7
2017-09-18T08:42:55.525Z,26.6
2017-09-18T08:43:56.335Z,26.8
2017-09-18T08:44:57.069Z,27.9
2017-09-18T08:45:57.816Z,25.7
2017-09-18T08:46:58.609Z,24.3
2017-09-18T08:47:59.804Z,24.9
2017-09-18T08:49:00.539Z,24.2
2017-09-18T08:50:01.310Z,26.0
2017-09-18T08:51:02.080Z,23.7
2017-09-18T08:52:02.765Z,25.2
2017-09-18T08:53:03.863Z,24.6
2017-09-18T08:54:04.686Z,18.5
2017-09-18T08:55:05.504Z,17.0
2017-09-18T08:56:06.244Z,17.0
2017-09-18T08:57:06.986Z,16.7
2017-09-18T08:58:08.074Z,13.7
2017-09-18T08:59:08.815Z,13.7
2017-09-18T09:00:09.540Z,13.1
2017-09-18T09:01:10.359Z,12.5
2017-09-18T09:02:11.100Z,13.4
2017-09-18T09:03:12.139Z,12.6
2017-09-18T09:04:12.966Z,13.6
2017-09-18T09:05:13.711Z,12.0
2017-09-18T09:06:14.521Z,12.9
2017-09-18T09:07:15.338Z,13.0
2017-09-18T09:08:16.457Z,11.0
2017-09-18T09:09:17.257Z,10.3
2017-09-18T09:10:17.995Z,10.1
2017-09-18T09:11:18.744Z,9.9
2017-09-18T09:12:19.483Z,8.7
2017-09-18T09:13:20.301Z,7.8
2017-09-18T09:14:21.050Z,8.2
2017-09-18T09:15:22.262Z,9.9
2017-09-18T09:16:22.999Z,10.8
2017-09-18T09:17:23.824Z,9.3
2017-09-18T09:18:24.567Z,9.2
2017-09-18T09:19:25.376Z,9.3
2017-09-18T09:20:26.584Z,9.4
2017-09-18T09:21:27.317Z,9.3
2017-09-18T09:22:28.055Z,9.8
2017-09-18T09:23:28.794Z,10.4
2017-09-18T09:24:29.605Z,11.5
2017-09-18T09:25:30.597Z,11.7
2017-09-18T09:26:31.428Z,10.7
2017-09-18T09:27:32.165Z,11.7
2017-09-18T09:28:32.904Z,12.2
2017-09-18T09:29:33.649Z,12.4
2017-09-18T09:30:34.808Z,12.9
2017-09-18T09:31:35.537Z,13.1
2017-09-18T09:32:36.311Z,14.4
2017-09-18T09:33:37.136Z,14.5
2017-09-18T09:34:37.950Z,13.3
2017-09-18T09:35:38.736Z,14.4
2017-09-18T09:36:39.493Z,15.2
2017-09-18T09:37:40.279Z,14.0
2017-09-18T09:38:41.031Z,15.2
2017-09-18T09:39:41.836Z,16.5
2017-09-18T09:40:43.036Z,17.2
2017-09-18T09:41:43.854Z,15.8
2017-09-18T09:42:44.585Z,14.6
2017-09-18T09:43:45.330Z,14.9
2017-09-18T09:44:46.075Z,15.2
2017-09-18T09:45:47.167Z,14.3
2017-09-18T09:46:47.974Z,15.0
2017-09-18T09:47:48.714Z,15.7
2017-09-18T09:48:49.455Z,15.7
2017-09-18T09:49:50.193Z,14.8
2017-09-18T09:50:51.218Z,14.0
2017-09-18T09:51:52.015Z,14.1
2017-09-18T09:52:52.777Z,15.3
2017-09-18T09:53:53.500Z,14.8
2017-09-18T09:54:54.295Z,13.8
2017-09-18T09:55:55.499Z,14.5
2017-09-18T09:56:56.320Z,15.4
2017-09-18T09:57:57.117Z,16.1
2017-09-18T09:58:57.901Z,15.0
2017-09-18T09:59:58.691Z,17.0
2017-09-18T10:00:59.797Z,15.4
2017-09-18T10:02:00.534Z,16.5
2017-09-18T10:03:01.278Z,16.2
2017-09-18T10:04:02.019Z,15.5
2017-09-18T10:05:02.807Z,15.6
2017-09-18T10:06:04.026Z,16.2
2017-09-18T10:07:04.847Z,16.5
2017-09-18T10:08:05.679Z,16.3
2017-09-18T10:09:06.460Z,17.3
2017-09-18T10:10:07.204Z,17.1
2017-09-18T10:11:08.295Z,18.3
2017-09-18T10:12:09.106Z,20.5
2017-09-18T10:13:09.909Z,18.6
2017-09-18T10:14:10.714Z,18.3
2017-09-18T10:15:11.521Z,17.6
2017-09-18T10:16:12.659Z,16.7
2017-09-18T10:17:13.455Z,16.3
2017-09-18T10:18:14.276Z,17.4
2017-09-18T10:19:15.078Z,16.9
2017-09-18T10:20:15.894Z,17.3
2017-09-18T10:21:17.092Z,17.5
2017-09-18T10:22:17.895Z,18.7
2017-09-18T10:23:18.635Z,18.5
2017-09-18T10:24:19.392Z,17.4
2017-09-18T10:25:20.209Z,16.6
2017-09-18T10:26:21.322Z,15.8
2017-09-18T10:27:22.109Z,15.4
2017-09-18T10:28:22.854Z,15.2
2017-09-18T10:29:23.609Z,16.2
2017-09-18T10:30:24.431Z,15.2
2017-09-18T10:31:25.437Z,17.5
2017-09-18T10:32:26.254Z,16.8
2017-09-18T10:33:26.997Z,16.9
2017-09-18T10:34:27.784Z,16.8
2017-09-18T10:35:29.465Z,17.9
2017-09-18T10:36:30.861Z,17.6
2017-09-18T10:37:31.655Z,16.4
2017-09-18T10:38:32.394Z,15.6
2017-09-18T10:39:33.137Z,17.4
2017-09-18T10:40:33.925Z,15.6
2017-09-18T10:41:35.084Z,17.3
2017-09-18T10:42:35.825Z,16.0
2017-09-18T10:43:36.625Z,17.1
2017-09-18T10:44:37.374Z,17.0
2017-09-18T10:45:38.113Z,16.5
2017-09-18T10:46:39.254Z,16.4
2017-09-18T10:47:39.994Z,17.3
2017-09-18T10:48:40.735Z,18.0
2017-09-18T10:49:41.475Z,16.3
2017-09-18T10:50:42.217Z,17.4
2017-09-18T10:51:43.291Z,18.1
2017-09-18T10:52:44.100Z,17.5
2017-09-18T10:53:44.902Z,18.6
2017-09-18T10:54:45.644Z,19.1
2017-09-18T10:55:46.469Z,19.4
2017-09-18T10:56:47.635Z,20.0
2017-09-18T10:57:48.385Z,18.7
2017-09-18T10:58:49.199Z,19.3
2017-09-18T10:59:49.946Z,17.8
2017-09-18T11:00:50.769Z,16.7
2017-09-18T11:01:51.776Z,18.1
2017-09-18T11:02:52.586Z,17.2
2017-09-18T11:03:53.404Z,17.2
2017-09-18T11:04:54.146Z,17.8
2017-09-18T11:05:54.964Z,17.4
2017-09-18T11:06:56.056Z,17.9
2017-09-18T11:07:56.862Z,18.1
2017-09-18T11:08:57.681Z,16.8
2017-09-18T11:09:58.389Z,18.4
2017-09-18T11:10:59.126Z,19.9
2017-09-18T11:12:00.196Z,18.5
2017-09-18T11:13:01.011Z,20.3
2017-09-18T11:14:01.799Z,20.0
2017-09-18T11:15:02.535Z,17.7
2017-09-18T11:16:03.275Z,17.9
2017-09-18T11:17:04.370Z,18.4
2017-09-18T11:18:05.125Z,17.9
2017-09-18T11:19:05.869Z,18.0
2017-09-18T11:20:06.616Z,18.5
2017-09-18T11:21:07.387Z,18.0
2017-09-18T11:22:08.540Z,19.3
2017-09-18T11:23:09.299Z,19.9
2017-09-18T11:24:10.069Z,19.9
2017-09-18T11:25:10.817Z,20.2
2017-09-18T11:26:11.600Z,20.0
2017-09-18T11:27:12.585Z,19.8
2017-09-18T11:28:13.395Z,23.2
2017-09-18T11:29:14.129Z,20.4
2017-09-18T11:30:14.915Z,19.7
2017-09-18T11:31:15.729Z,21.9
2017-09-18T11:32:18.523Z,21.8
2017-09-18T11:33:19.454Z,25.5
2017-09-18T11:34:20.201Z,24.9
2017-09-18T11:35:21.023Z,22.2
2017-09-18T11:36:21.763Z,19.8
2017-09-18T11:37:22.844Z,20.4
2017-09-18T11:38:23.587Z,19.9
2017-09-18T11:39:24.396Z,20.2
2017-09-18T11:40:25.136Z,21.7
2017-09-18T11:41:25.943Z,21.6
2017-09-18T11:42:26.876Z,19.7
2017-09-18T11:43:27.622Z,19.6
2017-09-18T11:44:28.395Z,20.5
2017-09-18T11:45:29.218Z,20.6
2017-09-18T11:46:30.008Z,22.0
2017-09-18T11:47:30.741Z,22.7
2017-09-18T11:48:31.488Z,22.0
2017-09-18T11:49:32.572Z,22.1
2017-09-18T11:50:33.328Z,23.5
2017-09-18T11:51:34.135Z,20.9
2017-09-18T11:52:34.943Z,19.7
2017-09-18T11:53:35.687Z,20.1
2017-09-18T11:54:36.774Z,18.2
2017-09-18T11:55:37.511Z,19.2
2017-09-18T11:56:38.335Z,18.8
2017-09-18T11:57:39.135Z,19.2
2017-09-18T11:58:39.878Z,18.7
2017-09-18T11:59:40.709Z,19.1
2017-09-18T12:00:41.514Z,18.8
2017-09-18T12:01:42.672Z,19.5
2017-09-18T12:02:43.417Z,18.9
2017-09-18T12:03:44.219Z,17.7
2017-09-18T12:04:45.037Z,19.7
2017-09-18T12:05:45.861Z,19.9
2017-09-18T12:06:46.915Z,18.6
2017-09-18T12:07:48.113Z,19.7
2017-09-18T12:08:48.855Z,19.5
2017-09-18T12:09:49.613Z,19.7
2017-09-18T12:10:50.430Z,20.6
2017-09-18T12:11:51.564Z,20.2
2017-09-18T12:12:52.261Z,22.3
2017-09-18T12:13:52.997Z,21.9
2017-09-18T12:14:53.798Z,22.5
2017-09-18T12:15:54.534Z,24.3
2017-09-18T12:16:55.623Z,23.6
2017-09-18T12:17:56.366Z,23.5
2017-09-18T12:18:57.185Z,22.7
2017-09-18T12:19:58.005Z,24.2
2017-09-18T12:20:58.783Z,24.7
2017-09-18T12:21:59.528Z,26.8
2017-09-18T12:23:00.343Z,27.7
2017-09-18T12:24:01.077Z,28.0
2017-09-18T12:25:01.827Z,29.1
2017-09-18T12:26:02.565Z,30.6
2017-09-18T12:27:03.703Z,32.8
2017-09-18T12:28:04.445Z,34.3
2017-09-18T12:29:05.200Z,37.5
2017-09-18T12:30:05.986Z,43.4
2017-09-18T12:31:06.726Z,44.1
2017-09-18T12:32:07.870Z,48.3
2017-09-18T12:33:08.602Z,49.8
2017-09-18T12:34:09.351Z,50.3
2017-09-18T12:35:10.118Z,52.7
2017-09-18T12:36:10.920Z,52.8
2017-09-18T12:37:11.663Z,53.8
2017-09-18T12:38:12.694Z,55.8
2017-09-18T12:39:13.497Z,56.2
2017-09-18T12:40:14.288Z,57.6
2017-09-18T12:41:15.084Z,58.8
2017-09-18T12:42:15.903Z,58.8
2017-09-18T12:43:16.903Z,61.9
2017-09-18T12:44:17.813Z,61.1
2017-09-18T12:45:18.494Z,52.8
2017-09-18T12:46:19.228Z,48.1
2017-09-18T12:47:20.029Z,52.9
2017-09-18T12:48:21.117Z,51.4
2017-09-18T12:49:21.929Z,51.5
2017-09-18T12:50:22.745Z,49.6
2017-09-18T12:51:23.553Z,45.2
2017-09-18T12:52:24.301Z,40.8
2017-09-18T12:53:25.373Z,39.4
2017-09-18T12:54:26.122Z,37.5
2017-09-18T12:55:26.936Z,34.4
2017-09-18T12:56:27.744Z,31.9
2017-09-18T12:57:28.483Z,31.6
2017-09-18T12:58:29.213Z,31.0
2017-09-18T12:59:29.947Z,31.6
2017-09-18T13:00:30.783Z,31.4
2017-09-18T13:01:31.872Z,27.9
2017-09-18T13:02:32.694Z,26.9
2017-09-18T13:03:33.425Z,28.4
2017-09-18T13:04:34.167Z,26.0
2017-09-18T13:05:34.905Z,24.8
2017-09-18T13:06:36.122Z,24.1
2017-09-18T13:07:36.853Z,21.8
2017-09-18T13:08:37.584Z,20.9
2017-09-18T13:09:38.329Z,19.1
2017-09-18T13:10:39.114Z,18.9
2017-09-18T13:11:39.872Z,18.8
2017-09-18T13:12:40.638Z,19.6
2017-09-18T13:13:41.778Z,19.4
2017-09-18T13:14:42.571Z,20.5
2017-09-18T13:15:43.314Z,20.1
2017-09-18T13:16:44.053Z,19.6
2017-09-18T13:17:44.871Z,17.3
2017-09-18T13:18:45.845Z,18.0
2017-09-18T13:19:46.596Z,20.5
2017-09-18T13:20:47.377Z,18.5
2017-09-18T13:21:48.132Z,19.5
2017-09-18T13:22:48.938Z,19.8
2017-09-18T13:23:50.125Z,21.0
2017-09-18T13:24:50.862Z,16.6
2017-09-18T13:25:51.661Z,12.7
2017-09-18T13:26:52.424Z,11.8
2017-09-18T13:27:53.177Z,11.1
2017-09-18T13:28:53.953Z,10.4
2017-09-18T13:29:54.986Z,11.0
2017-09-18T13:30:55.714Z,11.0